Time;durP1;ratioP1;P1;durP2;ratioP2;P2;SDS_P1;SDS_P2;PMS_P1;PMS_P2;Temp;Humidity;BMP_temperature;BMP_pressure;BME280_temperature;BME280_humidity;BME280_pressure;Samples;Min_cycle;Max_cycle;Signal;HPM_P1;HPM_P2
2022/03/14 00:01:21;;;;;;;18.48;7.65;;;;;;;;;;5027047;28;20042;-78
2022/03/14 00:03:55;;;;;;;13.68;7.72;;;;;;;;;;5017982;28;20026;-79
2022/03/14 00:06:20;;;;;;;13.30;7.65;;;;;;;;;;5017326;28;20064;-79
2022/03/14 00:08:46;;;;;;;12.77;7.15;;;;;;;;;;5016683;28;20407;-79
2022/03/14 00:11:14;;;;;;;18.08;7.30;;;;;;;;;;5027290;28;20021;-78
2022/03/14 00:13:41;;;;;;;17.10;7.55;;;;;;;;;;5032235;28;20021;-79
2022/03/14 00:16:08;;;;;;;12.70;7.60;;;;;;;;;;5024048;28;20060;-80
2022/03/14 00:18:35;;;;;;;13.40;7.43;;;;;;;;;;5019510;28;20072;-79
2022/03/14 00:21:01;;;;;;;16.88;8.38;;;;;;;;;;5029136;28;20045;-79
2022/03/14 00:23:27;;;;;;;17.15;8.60;;;;;;;;;;5032404;28;20301;-79
2022/03/14 00:25:54;;;;;;;16.00;8.40;;;;;;;;;;5014332;28;20025;-79
2022/03/14 00:28:20;;;;;;;14.70;8.15;;;;;;;;;;5020740;28;20467;-79
2022/03/14 00:30:45;;;;;;;15.10;8.10;;;;;;;;;;5027202;28;20026;-82
2022/03/14 00:33:11;;;;;;;17.92;9.23;;;;;;;;;;5017960;28;20075;-81
2022/03/14 00:35:36;;;;;;;16.35;8.73;;;;;;;;;;5017289;28;20080;-82
2022/03/14 00:38:02;;;;;;;19.83;9.65;;;;;;;;;;5017744;28;20503;-81
2022/03/14 00:40:27;;;;;;;16.10;9.25;;;;;;;;;;5003107;28;20022;-83
2022/03/14 00:42:53;;;;;;;17.83;9.82;;;;;;;;;;5015828;28;20373;-81
2022/03/14 00:45:21;;;;;;;18.13;9.60;;;;;;;;;;5016254;28;20049;-80
2022/03/14 00:47:46;;;;;;;17.30;9.50;;;;;;;;;;5015889;28;20029;-80
2022/03/14 00:50:12;;;;;;;18.52;9.63;;;;;;;;;;5026108;28;20029;-82
2022/03/14 00:52:37;;;;;;;17.77;8.15;;;;;;;;;;5036852;28;20022;-81
2022/03/14 00:55:03;;;;;;;18.27;9.25;;;;;;;;;;5029712;28;20385;-80
2022/03/14 00:57:29;;;;;;;16.52;8.35;;;;;;;;;;5031667;28;20029;-80
2022/03/14 00:59:55;;;;;;;18.00;8.88;;;;;;;;;;5023978;28;20026;-82
2022/03/14 01:02:52;;;;;;;20.42;9.00;;;;;;;;;;5012055;28;20038;-81
2022/03/14 01:05:18;;;;;;;18.08;8.75;;;;;;;;;;5011834;28;20443;-80
2022/03/14 01:07:43;;;;;;;21.65;9.38;;;;;;;;;;5014809;28;20077;-80
2022/03/14 01:10:09;;;;;;;20.77;9.98;;;;;;;;;;5016674;28;20100;-82
2022/03/14 01:12:35;;;;;;;18.08;9.57;;;;;;;;;;5015444;28;20030;-83
2022/03/14 01:15:01;;;;;;;22.45;10.40;;;;;;;;;;5016545;28;20026;-81
2022/03/14 01:17:26;;;;;;;19.85;10.93;;;;;;;;;;5027743;28;20042;-81
2022/03/14 01:19:52;;;;;;;20.15;10.98;;;;;;;;;;5015799;28;20430;-82
2022/03/14 01:22:17;;;;;;;17.50;10.25;;;;;;;;;;5019422;28;20072;-81
2022/03/14 01:24:43;;;;;;;19.15;11.05;;;;;;;;;;5030035;28;20018;-79
2022/03/14 01:27:09;;;;;;;18.00;10.70;;;;;;;;;;5026059;28;20040;-80
2022/03/14 01:29:35;;;;;;;18.48;10.05;;;;;;;;;;5030394;28;20108;-82
2022/03/14 01:32:05;;;;;;;15.52;9.82;;;;;;;;;;5016155;28;20032;-81
2022/03/14 01:34:31;;;;;;;12.88;7.18;;;;;;;;;;5016205;28;20025;-82
2022/03/14 01:36:56;;;;;;;12.00;8.20;;;;;;;;;;5016357;28;20033;-82
2022/03/14 01:39:22;;;;;;;11.90;7.13;;;;;;;;;;5013647;28;20056;-81
2022/03/14 01:41:48;;;;;;;12.13;7.70;;;;;;;;;;5016528;28;20104;-80
2022/03/14 01:44:13;;;;;;;12.73;7.03;;;;;;;;;;5015426;28;20101;-81
2022/03/14 01:46:39;;;;;;;12.35;6.47;;;;;;;;;;5015007;28;20040;-82
2022/03/14 01:49:04;;;;;;;11.90;6.30;;;;;;;;;;5015038;28;20409;-81
2022/03/14 01:51:30;;;;;;;10.25;6.38;;;;;;;;;;5031136;28;20365;-82
2022/03/14 01:53:56;;;;;;;9.57;6.30;;;;;;;;;;5015995;28;20037;-81
2022/03/14 01:56:23;;;;;;;10.88;6.18;;;;;;;;;;5013843;28;20034;-82
2022/03/14 01:58:50;;;;;;;6.90;4.55;;;;;;;;;;4994518;28;20425;-82
2022/03/14 02:01:16;;;;;;;7.90;5.00;;;;;;;;;;5028277;28;20033;-82
2022/03/14 02:03:42;;;;;;;7.32;4.18;;;;;;;;;;5024339;28;20014;-82
2022/03/14 02:06:08;;;;;;;7.32;3.97;;;;;;;;;;5017493;28;20034;-82
2022/03/14 02:08:35;;;;;;;5.40;3.65;;;;;;;;;;5015861;28;20033;-81
2022/03/14 02:11:00;;;;;;;6.32;4.30;;;;;;;;;;5015100;28;20037;-80
2022/03/14 02:13:26;;;;;;;6.32;3.78;;;;;;;;;;5015038;28;20030;-83
2022/03/14 02:15:51;;;;;;;6.35;3.95;;;;;;;;;;5008256;28;20034;-81
2022/03/14 02:18:16;;;;;;;6.18;3.83;;;;;;;;;;5022604;28;20032;-81
2022/03/14 02:20:42;;;;;;;5.63;3.80;;;;;;;;;;5027816;28;20533;-81
2022/03/14 02:23:07;;;;;;;6.28;3.90;;;;;;;;;;5028365;28;20080;-84
2022/03/14 02:25:34;;;;;;;5.10;3.15;;;;;;;;;;5024581;28;20017;-84
2022/03/14 02:27:59;;;;;;;4.15;2.50;;;;;;;;;;5028691;28;20061;-84
2022/03/14 02:30:25;;;;;;;4.40;3.05;;;;;;;;;;5026308;28;20373;-83
2022/03/14 02:32:50;;;;;;;5.32;3.42;;;;;;;;;;5014592;28;20072;-81
2022/03/14 02:35:16;;;;;;;4.32;3.08;;;;;;;;;;5026266;28;20025;-83
2022/03/14 02:37:41;;;;;;;4.35;2.65;;;;;;;;;;5013246;28;20030;-83
2022/03/14 02:40:08;;;;;;;4.63;3.00;;;;;;;;;;5020276;28;20072;-80
2022/03/14 02:42:34;;;;;;;3.50;2.15;;;;;;;;;;5032417;28;20022;-81
2022/03/14 02:45:00;;;;;;;4.82;2.30;;;;;;;;;;5029619;28;20026;-81
2022/03/14 02:47:25;;;;;;;3.83;2.25;;;;;;;;;;5015547;28;20473;-82
2022/03/14 02:49:51;;;;;;;5.43;2.33;;;;;;;;;;5023650;28;20029;-82
2022/03/14 02:52:16;;;;;;;2.08;1.88;;;;;;;;;;5035487;28;20109;-81
2022/03/14 02:54:43;;;;;;;2.63;2.00;;;;;;;;;;5029997;28;20053;-80
2022/03/14 02:57:08;;;;;;;2.97;2.20;;;;;;;;;;5032023;28;20025;-81
2022/03/14 02:59:34;;;;;;;2.83;2.00;;;;;;;;;;5033112;28;20033;-82
2022/03/14 03:01:59;;;;;;;2.63;2.13;;;;;;;;;;5034672;28;20048;-83
2022/03/14 03:04:25;;;;;;;2.80;2.30;;;;;;;;;;5032933;28;20022;-83
2022/03/14 03:06:50;;;;;;;4.05;2.45;;;;;;;;;;5034600;28;20045;-82
2022/03/14 03:09:16;;;;;;;3.30;2.42;;;;;;;;;;5035102;28;20040;-84
2022/03/14 03:11:53;;;;;;;3.42;2.28;;;;;;;;;;5038209;28;20812;-84
2022/03/14 03:14:37;;;;;;;3.17;2.50;;;;;;;;;;5030881;28;20041;-83
2022/03/14 03:17:03;;;;;;;2.97;2.38;;;;;;;;;;5024246;28;20515;-84
2022/03/14 03:19:29;;;;;;;5.43;2.70;;;;;;;;;;5038223;28;20108;-84
2022/03/14 03:21:54;;;;;;;5.90;2.92;;;;;;;;;;5024427;28;20103;-84
2022/03/14 03:24:19;;;;;;;3.92;2.38;;;;;;;;;;5014629;28;20017;-82
2022/03/14 03:26:45;;;;;;;3.53;2.33;;;;;;;;;;5031029;28;20083;-84
2022/03/14 03:29:10;;;;;;;3.30;2.33;;;;;;;;;;5036060;28;20021;-85
2022/03/14 03:31:36;;;;;;;3.03;2.25;;;;;;;;;;5024598;28;20037;-84
2022/03/14 03:34:01;;;;;;;3.60;2.50;;;;;;;;;;5013602;28;20073;-84
2022/03/14 03:36:27;;;;;;;3.78;2.45;;;;;;;;;;5014673;28;20064;-84
2022/03/14 03:38:52;;;;;;;3.63;2.42;;;;;;;;;;5026256;28;20101;-84
2022/03/14 03:41:17;;;;;;;7.03;3.03;;;;;;;;;;4999159;28;20050;-83
2022/03/14 03:43:43;;;;;;;3.53;2.80;;;;;;;;;;5016880;28;20038;-84
2022/03/14 03:46:08;;;;;;;3.15;2.10;;;;;;;;;;5013463;28;20432;-82
2022/03/14 03:48:34;;;;;;;2.60;2.22;;;;;;;;;;5025724;28;20049;-82
2022/03/14 03:51:00;;;;;;;2.60;2.40;;;;;;;;;;5034270;28;20052;-79
2022/03/14 03:53:25;;;;;;;3.72;2.33;;;;;;;;;;5030490;28;20083;-81
2022/03/14 03:55:51;;;;;;;3.92;2.75;;;;;;;;;;5034903;28;20492;-83
2022/03/14 03:58:16;;;;;;;5.40;2.50;;;;;;;;;;5051163;28;20044;-85
2022/03/14 04:00:42;;;;;;;4.57;2.50;;;;;;;;;;5039106;28;20048;-85
2022/03/14 04:03:08;;;;;;;3.22;2.55;;;;;;;;;;5023846;28;20038;-84
2022/03/14 04:05:39;;;;;;;3.58;2.42;;;;;;;;;;5029083;28;20045;-85
2022/03/14 04:08:10;;;;;;;3.50;2.45;;;;;;;;;;5034301;28;20080;-84
2022/03/14 04:10:36;;;;;;;3.05;2.70;;;;;;;;;;5036772;28;20036;-85
2022/03/14 04:13:03;;;;;;;3.97;2.67;;;;;;;;;;5037714;28;20030;-85
2022/03/14 04:15:29;;;;;;;2.72;2.38;;;;;;;;;;5042014;28;20056;-86
2022/03/14 04:17:59;;;;;;;2.72;2.20;;;;;;;;;;5028164;28;20033;-87
2022/03/14 04:20:24;;;;;;;3.28;2.40;;;;;;;;;;5026458;28;20036;-85
2022/03/14 04:22:53;;;;;;;3.08;2.45;;;;;;;;;;5028752;28;20026;-86
2022/03/14 04:25:18;;;;;;;4.43;2.28;;;;;;;;;;5028765;28;20415;-86
2022/03/14 04:27:44;;;;;;;2.80;2.30;;;;;;;;;;5029785;28;20036;-86
2022/03/14 04:30:10;;;;;;;3.35;2.70;;;;;;;;;;5031409;28;20022;-85
2022/03/14 04:32:36;;;;;;;3.17;2.35;;;;;;;;;;5021257;28;20033;-84
2022/03/14 04:35:01;;;;;;;3.42;2.40;;;;;;;;;;5019413;28;20017;-85
2022/03/14 04:37:26;;;;;;;4.45;2.50;;;;;;;;;;5022591;28;20034;-85
2022/03/14 04:39:52;;;;;;;2.88;2.47;;;;;;;;;;5006983;28;20035;-84
2022/03/14 04:42:20;;;;;;;3.70;2.30;;;;;;;;;;5008853;28;20029;-84
2022/03/14 04:44:49;;;;;;;3.15;2.38;;;;;;;;;;5016140;28;20018;-82
2022/03/14 04:47:14;;;;;;;5.50;2.10;;;;;;;;;;5017236;28;20034;-84
2022/03/14 04:49:40;;;;;;;2.95;2.50;;;;;;;;;;5041334;28;20168;-84
2022/03/14 04:52:06;;;;;;;8.32;2.47;;;;;;;;;;5025219;28;20094;-83
2022/03/14 04:54:31;;;;;;;3.13;2.53;;;;;;;;;;5023152;28;20290;-84
2022/03/14 04:56:57;;;;;;;3.92;2.85;;;;;;;;;;5032737;28;20029;-84
2022/03/14 04:59:22;;;;;;;6.30;2.53;;;;;;;;;;5022552;28;20109;-82
2022/03/14 05:01:48;;;;;;;5.25;2.72;;;;;;;;;;5029650;28;20060;-83
2022/03/14 05:04:13;;;;;;;4.57;2.65;;;;;;;;;;5025366;28;20029;-80
2022/03/14 05:06:38;;;;;;;4.80;2.75;;;;;;;;;;5018198;28;20114;-83
2022/03/14 05:09:05;;;;;;;3.53;2.67;;;;;;;;;;5019372;28;20026;-83
2022/03/14 05:11:32;;;;;;;3.17;2.53;;;;;;;;;;5036345;28;20032;-85
2022/03/14 05:13:58;;;;;;;3.97;2.60;;;;;;;;;;5026824;28;20016;-81
2022/03/14 05:16:23;;;;;;;1.92;1.73;;;;;;;;;;5014721;28;20101;-85
2022/03/14 05:18:48;;;;;;;2.65;1.85;;;;;;;;;;5022077;28;20025;-85
2022/03/14 05:21:14;;;;;;;1.70;1.60;;;;;;;;;;5029161;28;20029;-85
2022/03/14 05:23:40;;;;;;;2.83;2.00;;;;;;;;;;5029360;28;20092;-84
2022/03/14 05:26:06;;;;;;;3.65;1.90;;;;;;;;;;5030154;28;20041;-84
2022/03/14 05:28:32;;;;;;;3.28;2.20;;;;;;;;;;5036376;28;20437;-83
2022/03/14 05:30:57;;;;;;;3.13;1.88;;;;;;;;;;5022785;28;20066;-84
2022/03/14 05:33:23;;;;;;;1.55;1.40;;;;;;;;;;5004812;28;20029;-84
2022/03/14 05:35:50;;;;;;;2.97;1.70;;;;;;;;;;5019130;28;20392;-83
2022/03/14 05:38:15;;;;;;;3.20;1.92;;;;;;;;;;5016066;28;20030;-81
2022/03/14 05:40:41;;;;;;;2.13;1.60;;;;;;;;;;5013648;28;20033;-84
2022/03/14 05:43:07;;;;;;;6.22;1.58;;;;;;;;;;5016147;28;20041;-84
2022/03/14 05:45:33;;;;;;;4.03;1.70;;;;;;;;;;5016466;28;20098;-84
2022/03/14 05:47:58;;;;;;;2.13;1.33;;;;;;;;;;5015730;28;20049;-84
2022/03/14 05:50:24;;;;;;;4.38;1.20;;;;;;;;;;5022811;28;20059;-82
2022/03/14 05:52:51;;;;;;;3.50;1.40;;;;;;;;;;5016035;28;20034;-81
2022/03/14 05:55:16;;;;;;;1.65;1.13;;;;;;;;;;5020190;28;20144;-83
2022/03/14 05:57:42;;;;;;;4.80;0.95;;;;;;;;;;5024106;28;20068;-81
2022/03/14 06:00:08;;;;;;;5.05;1.13;;;;;;;;;;5034868;28;20033;-82
2022/03/14 06:02:35;;;;;;;2.47;1.38;;;;;;;;;;5015205;28;20030;-84
2022/03/14 06:05:00;;;;;;;3.60;1.20;;;;;;;;;;5016460;28;20021;-85
2022/03/14 06:07:26;;;;;;;5.10;1.35;;;;;;;;;;5017076;28;20040;-85
2022/03/14 06:09:51;;;;;;;0.70;0.68;;;;;;;;;;5016899;28;20473;-82
2022/03/14 06:12:43;;;;;;;3.20;0.98;;;;;;;;;;5015022;28;20041;-89
2022/03/14 06:15:12;;;;;;;2.63;0.82;;;;;;;;;;5010646;28;20076;-81
2022/03/14 06:17:37;;;;;;;4.60;1.70;;;;;;;;;;5021100;28;20112;-83
2022/03/14 06:20:03;;;;;;;3.92;1.05;;;;;;;;;;5027720;28;20057;-84
2022/03/14 06:22:29;;;;;;;5.95;1.60;;;;;;;;;;5020008;28;20029;-84
2022/03/14 06:24:55;;;;;;;2.60;1.10;;;;;;;;;;5023391;28;20017;-83
2022/03/14 06:29:51;;;;;;;3.95;1.50;;;;;;;;;;5025220;28;20290;-83
2022/03/14 06:32:16;;;;;;;3.00;1.35;;;;;;;;;;5028317;28;20026;-83
2022/03/14 06:34:43;;;;;;;2.97;1.13;;;;;;;;;;5019867;28;20075;-83
2022/03/14 06:37:08;;;;;;;4.93;1.20;;;;;;;;;;5024823;28;20101;-84
2022/03/14 06:39:43;;;;;;;2.63;1.50;;;;;;;;;;5027336;28;20072;-82
2022/03/14 06:42:10;;;;;;;4.60;0.98;;;;;;;;;;5015685;28;20100;-81
2022/03/14 06:44:39;;;;;;;5.03;1.33;;;;;;;;;;5020190;28;20052;-83
2022/03/14 06:47:12;;;;;;;3.28;1.55;;;;;;;;;;5024525;28;20022;-83
2022/03/14 06:49:48;;;;;;;1.95;1.30;;;;;;;;;;5038178;28;20033;-84
2022/03/14 06:52:15;;;;;;;7.38;1.02;;;;;;;;;;5027221;28;20021;-84
2022/03/14 06:54:42;;;;;;;1.42;0.90;;;;;;;;;;5017445;28;20040;-83
2022/03/14 06:57:11;;;;;;;2.40;1.00;;;;;;;;;;5028723;28;20387;-85
2022/03/14 06:59:37;;;;;;;2.58;1.00;;;;;;;;;;5014331;28;20034;-83
2022/03/14 07:02:03;;;;;;;3.63;1.40;;;;;;;;;;5012840;28;20034;-83
2022/03/14 07:04:29;;;;;;;1.52;1.33;;;;;;;;;;5027108;28;20116;-83
2022/03/14 07:06:59;;;;;;;4.28;1.45;;;;;;;;;;5048989;28;20029;-83
2022/03/14 07:09:25;;;;;;;4.80;1.42;;;;;;;;;;5014638;28;20022;-83
2022/03/14 07:11:51;;;;;;;3.25;1.25;;;;;;;;;;5035517;28;20059;-83
2022/03/14 07:14:21;;;;;;;3.40;1.27;;;;;;;;;;5038240;28;20027;-83
2022/03/14 07:16:47;;;;;;;4.72;1.45;;;;;;;;;;5020001;28;20052;-83
2022/03/14 07:19:13;;;;;;;2.17;1.23;;;;;;;;;;5018877;28;20022;-82
2022/03/14 07:21:38;;;;;;;2.95;1.08;;;;;;;;;;5019250;28;20021;-82
2022/03/14 07:24:04;;;;;;;5.45;1.50;;;;;;;;;;5035864;28;20121;-83
2022/03/14 07:26:29;;;;;;;4.70;1.25;;;;;;;;;;5031212;28;20025;-82
2022/03/14 07:29:14;;;;;;;5.70;1.55;;;;;;;;;;5032173;28;20106;-82
2022/03/14 07:31:41;;;;;;;3.75;1.20;;;;;;;;;;4988901;28;20508;-82
2022/03/14 07:34:10;;;;;;;7.70;1.63;;;;;;;;;;5023480;28;20026;-84
2022/03/14 07:36:37;;;;;;;5.25;1.40;;;;;;;;;;5017072;28;20061;-82
2022/03/14 07:39:07;;;;;;;4.82;1.65;;;;;;;;;;5017304;28;20108;-82
2022/03/14 07:41:33;;;;;;;4.93;1.95;;;;;;;;;;5026445;28;20029;-83
2022/03/14 07:44:01;;;;;;;2.85;0.95;;;;;;;;;;5033089;28;20049;-82
2022/03/14 07:46:51;;;;;;;4.18;1.23;;;;;;;;;;5027883;28;20029;-84
2022/03/14 07:49:16;;;;;;;2.83;1.20;;;;;;;;;;5025490;28;20052;-83
2022/03/14 07:51:42;;;;;;;3.35;1.02;;;;;;;;;;5047094;28;20022;-83
2022/03/14 07:54:07;;;;;;;4.68;1.52;;;;;;;;;;5023960;28;20018;-82
2022/03/14 07:59:14;;;;;;;5.80;1.45;;;;;;;;;;5054136;22;20088;-85
2022/03/14 08:01:42;;;;;;;3.05;1.20;;;;;;;;;;5027248;28;20034;-82
2022/03/14 08:04:08;;;;;;;4.55;1.45;;;;;;;;;;5048148;28;20059;-83
2022/03/14 08:06:41;;;;;;;2.58;0.90;;;;;;;;;;5049809;28;20024;-81
2022/03/14 08:09:09;;;;;;;2.17;0.80;;;;;;;;;;5032919;28;20079;-83
2022/03/14 08:11:37;;;;;;;2.25;1.00;;;;;;;;;;5048670;28;20025;-82
2022/03/14 08:14:03;;;;;;;2.95;0.73;;;;;;;;;;5046359;28;20165;-81
2022/03/14 08:16:28;;;;;;;2.92;1.10;;;;;;;;;;5046173;28;20037;-81
2022/03/14 08:18:54;;;;;;;3.80;1.33;;;;;;;;;;5044852;28;20033;-80
2022/03/14 08:21:19;;;;;;;3.22;1.40;;;;;;;;;;5046501;28;20029;-82
2022/03/14 08:23:46;;;;;;;3.53;1.15;;;;;;;;;;5059179;28;20029;-82
2022/03/14 08:26:11;;;;;;;2.03;1.10;;;;;;;;;;5045466;28;20029;-82
2022/03/14 08:28:38;;;;;;;6.13;1.33;;;;;;;;;;5063584;28;20021;-82
2022/03/14 08:31:04;;;;;;;4.65;1.10;;;;;;;;;;5051714;28;20024;-83
2022/03/14 08:33:29;;;;;;;1.73;1.25;;;;;;;;;;5040157;28;20021;-82
2022/03/14 08:35:59;;;;;;;4.43;1.60;;;;;;;;;;5047382;28;20032;-81
2022/03/14 08:39:17;;;;;;;2.20;0.90;;;;;;;;;;5056739;28;20068;-82
2022/03/14 08:41:43;;;;;;;3.45;1.10;;;;;;;;;;5022716;28;20025;-83
2022/03/14 08:44:09;;;;;;;2.58;1.00;;;;;;;;;;5045019;28;20410;-82
2022/03/14 08:46:35;;;;;;;4.07;0.90;;;;;;;;;;5045711;28;20083;-82
2022/03/14 08:49:27;;;;;;;3.42;1.20;;;;;;;;;;5041609;28;20037;-88
2022/03/14 08:51:53;;;;;;;3.10;1.30;;;;;;;;;;5014664;28;20100;-82
2022/03/14 08:54:18;;;;;;;5.80;1.55;;;;;;;;;;5039607;28;20412;-81
2022/03/14 08:56:44;;;;;;;4.40;1.27;;;;;;;;;;5022197;28;20426;-82
2022/03/14 08:59:12;;;;;;;5.45;1.33;;;;;;;;;;5013794;28;20623;-81
2022/03/14 09:01:38;;;;;;;4.95;1.10;;;;;;;;;;5035185;28;20049;-80
2022/03/14 09:04:05;;;;;;;2.25;1.23;;;;;;;;;;5052619;28;20076;-81
2022/03/14 09:06:31;;;;;;;3.83;1.30;;;;;;;;;;5019937;28;20018;-83
2022/03/14 09:08:56;;;;;;;3.20;1.27;;;;;;;;;;5019546;28;20052;-82
2022/03/14 09:11:23;;;;;;;1.70;1.23;;;;;;;;;;5038632;28;20243;-82
2022/03/14 09:13:48;;;;;;;1.30;0.98;;;;;;;;;;5038157;28;20025;-81
2022/03/14 09:16:14;;;;;;;5.88;1.42;;;;;;;;;;5037266;28;20100;-81
2022/03/14 09:18:39;;;;;;;3.47;1.38;;;;;;;;;;5024963;28;20023;-81
2022/03/14 09:21:05;;;;;;;2.20;1.17;;;;;;;;;;5047982;28;20033;-81
2022/03/14 09:24:17;;;;;;;6.35;1.10;;;;;;;;;;5051365;28;20021;-82
2022/03/14 09:26:43;;;;;;;;;;;;;;;;;;5043041;28;20127;-81
2022/03/14 09:29:09;;;;;;;2.88;1.15;;;;;;;;;;5051899;28;19909;-80
2022/03/14 09:32:00;;;;;;;3.38;1.00;;;;;;;;;;5045975;28;20017;-82
2022/03/14 09:34:27;;;;;;;4.35;1.30;;;;;;;;;;5012337;28;20039;-82
2022/03/14 09:37:01;;;;;;;3.00;1.10;;;;;;;;;;5026179;28;20043;-82
2022/03/14 09:39:33;;;;;;;5.95;1.73;;;;;;;;;;5053792;28;20043;-82
2022/03/14 09:49:27;;;;;;;3.22;1.10;;;;;;;;;;4976445;28;20146;-81
2022/03/14 09:51:54;;;;;;;5.05;1.23;;;;;;;;;;5031100;28;20037;-82
2022/03/14 09:54:21;;;;;;;5.65;1.75;;;;;;;;;;5031661;28;20114;-82
2022/03/14 09:56:48;;;;;;;3.65;1.23;;;;;;;;;;5019844;28;20037;-82
2022/03/14 09:59:13;;;;;;;3.95;1.42;;;;;;;;;;5045497;28;20034;-82
2022/03/14 10:01:40;;;;;;;5.03;1.25;;;;;;;;;;5020352;28;20380;-82
2022/03/14 10:04:05;;;;;;;4.45;1.13;;;;;;;;;;5020007;28;20025;-82
2022/03/14 10:06:31;;;;;;;4.78;1.23;;;;;;;;;;5020253;28;20103;-81
2022/03/14 10:08:56;;;;;;;4.97;1.17;;;;;;;;;;5038379;28;20395;-82
2022/03/14 10:11:22;;;;;;;4.03;1.40;;;;;;;;;;5049183;28;20071;-82
2022/03/14 10:13:47;;;;;;;5.50;1.17;;;;;;;;;;5057868;28;20032;-82
2022/03/14 10:16:13;;;;;;;3.03;1.05;;;;;;;;;;5057323;28;20522;-83
2022/03/14 10:19:01;;;;;;;4.13;1.17;;;;;;;;;;5052761;28;20025;-82
2022/03/14 10:21:34;;;;;;;2.75;0.98;;;;;;;;;;5030179;28;20025;-83
2022/03/14 10:24:05;;;;;;;5.78;1.15;;;;;;;;;;5037901;28;20028;-82
2022/03/14 10:26:31;;;;;;;4.07;1.20;;;;;;;;;;5014969;28;20036;-82
2022/03/14 10:28:57;;;;;;;5.75;1.40;;;;;;;;;;5045012;28;20030;-83
2022/03/14 10:31:36;;;;;;;5.38;1.15;;;;;;;;;;5037720;28;20391;-83
2022/03/14 10:34:33;;;;;;;3.53;1.02;;;;;;;;;;5021621;28;20823;-87
2022/03/14 10:37:11;;;;;;;4.43;1.23;;;;;;;;;;5048405;28;20120;-82
2022/03/14 10:39:36;;;;;;;4.60;1.23;;;;;;;;;;5024604;28;20025;-82
2022/03/14 10:42:04;;;;;;;1.95;0.90;;;;;;;;;;5046164;28;20029;-82
2022/03/14 10:44:30;;;;;;;2.38;1.00;;;;;;;;;;5038871;28;20032;-82
2022/03/14 10:47:00;;;;;;;1.88;1.20;;;;;;;;;;5057081;28;20427;-82
2022/03/14 10:49:31;;;;;;;4.50;1.38;;;;;;;;;;5042256;28;20030;-82
2022/03/14 10:51:58;;;;;;;3.45;1.50;;;;;;;;;;5043902;28;20360;-82
2022/03/14 10:54:24;;;;;;;5.30;1.13;;;;;;;;;;5036993;28;20028;-82
2022/03/14 10:57:12;;;;;;;4.45;0.98;;;;;;;;;;5018051;28;20029;-82
2022/03/14 11:00:10;;;;;;;2.78;1.05;;;;;;;;;;5010355;28;20075;-88
2022/03/14 11:03:03;;;;;;;6.05;1.48;;;;;;;;;;5037680;28;20096;-81
2022/03/14 11:05:28;;;;;;;2.42;1.20;;;;;;;;;;5038405;28;20017;-82
2022/03/14 11:07:54;;;;;;;4.55;1.30;;;;;;;;;;5021002;28;20059;-82
2022/03/14 11:10:19;;;;;;;4.85;1.10;;;;;;;;;;5035672;28;20025;-82
2022/03/14 11:12:44;;;;;;;3.00;1.00;;;;;;;;;;5018240;28;20567;-83
2022/03/14 11:15:11;;;;;;;3.20;0.95;;;;;;;;;;5017967;28;20025;-83
2022/03/14 11:17:37;;;;;;;3.85;1.13;;;;;;;;;;5017644;28;20116;-84
2022/03/14 11:20:03;;;;;;;4.20;1.08;;;;;;;;;;5044035;28;20056;-81
2022/03/14 11:22:31;;;;;;;2.13;0.77;;;;;;;;;;5034424;28;20064;-77
2022/03/14 11:24:58;;;;;;;4.35;1.13;;;;;;;;;;5040188;28;20468;-79
2022/03/14 11:27:25;;;;;;;5.70;1.20;;;;;;;;;;5030390;28;20029;-78
2022/03/14 11:30:02;;;;;;;3.83;1.27;;;;;;;;;;5052319;28;20078;-78
2022/03/14 11:32:28;;;;;;;1.83;1.25;;;;;;;;;;5038536;28;20556;-78
2022/03/14 11:34:55;;;;;;;3.17;0.90;;;;;;;;;;5038335;28;20029;-80
2022/03/14 11:37:20;;;;;;;5.40;1.02;;;;;;;;;;5041507;28;20052;-79
2022/03/14 11:39:46;;;;;;;3.28;1.10;;;;;;;;;;5045452;28;20025;-79
2022/03/14 11:42:15;;;;;;;3.40;1.15;;;;;;;;;;5056398;28;20080;-78
2022/03/14 11:44:43;;;;;;;3.30;1.05;;;;;;;;;;5046884;28;20457;-82
2022/03/14 11:47:11;;;;;;;5.53;1.17;;;;;;;;;;5006763;28;20579;-80
2022/03/14 11:49:37;;;;;;;4.93;1.00;;;;;;;;;;5018254;28;20455;-80
2022/03/14 11:52:18;;;;;;;2.97;1.13;;;;;;;;;;5022603;28;20562;-80
2022/03/14 11:54:58;;;;;;;4.85;1.25;;;;;;;;;;5037019;28;20017;-80
2022/03/14 11:57:39;;;;;;;2.38;1.00;;;;;;;;;;5033728;28;20044;-81
2022/03/14 12:00:31;;;;;;;3.20;0.90;;;;;;;;;;5029321;28;20024;-81
2022/03/14 12:03:05;;;;;;;1.38;0.88;;;;;;;;;;5035632;28;20329;-81
2022/03/14 12:05:30;;;;;;;3.38;1.10;;;;;;;;;;5048836;28;20108;-80
2022/03/14 12:07:56;;;;;;;3.38;0.85;;;;;;;;;;5031525;28;20503;-79
2022/03/14 12:10:29;;;;;;;4.72;0.90;;;;;;;;;;5050592;28;20029;-80
2022/03/14 12:12:55;;;;;;;1.27;0.80;;;;;;;;;;5020229;28;20026;-81
2022/03/14 12:15:37;;;;;;;3.60;0.82;;;;;;;;;;5022618;28;20075;-81
2022/03/14 12:18:27;;;;;;;1.85;1.10;;;;;;;;;;5021851;28;20022;-80
2022/03/14 12:21:03;;;;;;;5.68;1.23;;;;;;;;;;5037036;28;20021;-80
2022/03/14 12:23:31;;;;;;;4.70;1.00;;;;;;;;;;5023795;28;20033;-82
2022/03/14 12:26:23;;;;;;;4.97;1.00;;;;;;;;;;5036319;28;20052;-81
2022/03/14 12:28:49;;;;;;;4.65;1.48;;;;;;;;;;5056490;28;20039;-81
2022/03/14 12:31:16;;;;;;;2.83;1.30;;;;;;;;;;5036468;28;20029;-83
2022/03/14 12:33:43;;;;;;;2.63;0.98;;;;;;;;;;5021150;28;20030;-82
2022/03/14 12:36:24;;;;;;;3.55;1.02;;;;;;;;;;5043704;28;20030;-90
2022/03/14 12:42:24;;;;;;;5.28;1.20;;;;;;;;;;5037875;28;20080;-82
2022/03/14 12:45:14;;;;;;;3.63;1.13;;;;;;;;;;5042601;28;20085;-82
2022/03/14 12:47:43;;;;;;;2.83;1.10;;;;;;;;;;5027032;28;20025;-83
2022/03/14 12:50:11;;;;;;;4.45;1.58;;;;;;;;;;5053115;28;20483;-83
2022/03/14 12:52:59;;;;;;;1.63;0.77;;;;;;;;;;5014978;28;20044;-83
2022/03/14 12:55:24;;;;;;;2.53;0.85;;;;;;;;;;5043751;28;20487;-83
2022/03/14 12:57:54;;;;;;;2.88;0.98;;;;;;;;;;5041861;28;20025;-83
2022/03/14 13:00:19;;;;;;;2.67;1.33;;;;;;;;;;5020468;28;20121;-83
2022/03/14 13:02:46;;;;;;;3.30;1.10;;;;;;;;;;5040359;28;20053;-82
2022/03/14 13:05:19;;;;;;;1.75;0.77;;;;;;;;;;5037363;28;20033;-82
2022/03/14 13:07:44;;;;;;;2.42;1.20;;;;;;;;;;5019792;28;20029;-82
2022/03/14 13:10:09;;;;;;;0.88;0.80;;;;;;;;;;5019987;28;20026;-82
2022/03/14 13:12:35;;;;;;;1.40;1.00;;;;;;;;;;5043243;28;20105;-82
2022/03/14 13:15:11;;;;;;;2.60;0.88;;;;;;;;;;5048420;28;20027;-83
2022/03/14 13:17:49;;;;;;;2.70;1.17;;;;;;;;;;5037804;28;20032;-83
2022/03/14 13:20:40;;;;;;;3.03;0.93;;;;;;;;;;5016243;28;20049;-82
2022/03/14 13:23:17;;;;;;;2.47;1.00;;;;;;;;;;5030627;28;20041;-83
2022/03/14 13:25:52;;;;;;;1.15;0.65;;;;;;;;;;5041301;28;20088;-82
2022/03/14 13:28:26;;;;;;;1.58;0.77;;;;;;;;;;5042792;28;20037;-82
2022/03/14 13:30:52;;;;;;;2.25;0.80;;;;;;;;;;5024868;28;20022;-86
2022/03/14 13:33:28;;;;;;;3.13;1.17;;;;;;;;;;5052992;28;20573;-86
2022/03/14 13:35:58;;;;;;;2.58;1.10;;;;;;;;;;5038182;28;20024;-86
2022/03/14 13:38:27;;;;;;;5.68;1.05;;;;;;;;;;5044084;28;20021;-87
2022/03/14 13:40:53;;;;;;;2.92;0.93;;;;;;;;;;5026598;28;20049;-86
2022/03/14 13:43:21;;;;;;;1.33;0.70;;;;;;;;;;5026346;28;20076;-84
2022/03/14 13:45:46;;;;;;;4.10;1.20;;;;;;;;;;5026556;28;20048;-85
2022/03/14 13:48:12;;;;;;;1.52;0.98;;;;;;;;;;5040510;28;20463;-86
2022/03/14 13:50:47;;;;;;;3.30;1.20;;;;;;;;;;5039609;28;20021;-86
2022/03/14 13:53:21;;;;;;;4.35;1.20;;;;;;;;;;5021661;28;20055;-86
2022/03/14 13:55:57;;;;;;;3.42;0.93;;;;;;;;;;5021238;28;20025;-85
2022/03/14 13:58:55;;;;;;;7.43;1.42;;;;;;;;;;5040283;28;20029;-85
2022/03/14 14:01:40;;;;;;;1.38;0.95;;;;;;;;;;5023117;28;20445;-85
2022/03/14 14:04:13;;;;;;;1.88;0.82;;;;;;;;;;5042533;28;20032;-83
2022/03/14 14:06:46;;;;;;;2.38;0.93;;;;;;;;;;5051149;28;20029;-84
2022/03/14 14:09:21;;;;;;;1.70;0.80;;;;;;;;;;5023153;28;20087;-83
2022/03/14 14:12:01;;;;;;;1.70;1.00;;;;;;;;;;5020657;28;20083;-83
2022/03/14 14:14:28;;;;;;;2.55;0.80;;;;;;;;;;5040567;28;20029;-83
2022/03/14 14:17:08;;;;;;;5.15;1.13;;;;;;;;;;5040918;28;20365;-82
2022/03/14 14:19:52;;;;;;;5.25;0.95;;;;;;;;;;5040964;28;20025;-84
2022/03/14 14:22:37;;;;;;;3.35;1.10;;;;;;;;;;5022742;28;20026;-83
2022/03/14 14:25:36;;;;;;;3.80;0.88;;;;;;;;;;5043515;28;20021;-81
2022/03/14 14:28:04;;;;;;;4.68;1.33;;;;;;;;;;5038565;28;20455;-83
2022/03/14 14:33:59;;;;;;;3.05;0.90;;;;;;;;;;4981933;28;20067;-83
2022/03/14 14:36:25;;;;;;;2.47;0.90;;;;;;;;;;5059034;28;20021;-83
2022/03/14 14:38:50;;;;;;;2.55;0.77;;;;;;;;;;5050065;28;20464;-83
2022/03/14 14:41:15;;;;;;;3.42;1.17;;;;;;;;;;5040595;28;20021;-81
2022/03/14 14:43:43;;;;;;;3.55;1.40;;;;;;;;;;5024835;28;20025;-82
2022/03/14 14:46:08;;;;;;;1.02;0.63;;;;;;;;;;5039503;28;20025;-82
2022/03/14 14:48:38;;;;;;;5.18;1.05;;;;;;;;;;5029410;28;20041;-82
2022/03/14 14:51:05;;;;;;;3.58;1.45;;;;;;;;;;5018149;28;20550;-83
2022/03/14 14:53:31;;;;;;;4.53;1.50;;;;;;;;;;5031095;28;20021;-83
2022/03/14 14:55:57;;;;;;;2.13;0.90;;;;;;;;;;5038158;28;20032;-83
2022/03/14 14:58:24;;;;;;;4.68;1.30;;;;;;;;;;5045845;28;20025;-83
2022/03/14 15:00:53;;;;;;;3.20;1.23;;;;;;;;;;5021492;28;20060;-83
2022/03/14 15:03:18;;;;;;;3.97;1.10;;;;;;;;;;5021449;28;20120;-83
2022/03/14 15:05:47;;;;;;;2.25;1.00;;;;;;;;;;5039744;28;20060;-83
2022/03/14 15:08:14;;;;;;;3.97;1.20;;;;;;;;;;5025128;28;20036;-83
2022/03/14 15:10:39;;;;;;;2.30;0.80;;;;;;;;;;5024361;28;20017;-83